• Join FlightAware (Why Join?)
  • Login
  • US Flag 
09:39PM EDT


 

Airport Tracker/Info


-or-


 

Live Flight TrackerFlight Track Log ✈ N717AN ✈ 26-Jul-2013 ✈ EGLL / LHR - KJFK

Flight Track Log - Related Links

Times and Time Zones

All times are in EDT time to prevent confusion due to time zone crossing. See the N717AN flight status page for this flight to view local times or setup timezone preferences in your user account.

Time Position Orientation Groundspeed Altitude Reporting Facility
EDT Latitude Longitude Course Direction KTS MPH feet Rate Location/Type
06:07AM 51.4770 -0.4350 18° North 100  Level FlightAware
06:09AM 51.4780 -0.4350 360° North 100  Level FlightAware
06:09AM 51.4780 -0.4750 270° West 175 201 200 1,380 Climbing FlightAware
06:10AM 51.4790 -0.5304 272° West 194 223 1,800 2,280 Climbing FlightAware ADS-B
06:10AM 51.4800 -0.5524 274° West 193 222 2,300 1,680 Climbing FlightAware ADS-B
06:10AM 51.4806 -0.5759 272° West 201 231 2,700 1,500 Climbing FlightAware ADS-B
06:10AM 51.4806 -0.5822 270° West 204 235 2,800 1,320 Climbing FlightAware ADS-B
06:11AM 51.4796 -0.6042 266° West 215 247 3,100 1,440 Climbing FlightAware ADS-B
06:11AM 51.4782 -0.6284 265° West 217 250 3,500 1,980 Climbing FlightAware ADS-B
06:11AM 51.4779 -0.6383 267° West 215 247 3,800 2,100 Climbing FlightAware ADS-B
06:11AM 51.4780 -0.6558 271° West 219 252 4,100 1,620 Climbing FlightAware ADS-B
06:11AM 51.4783 -0.6669 272° West 221 254 4,300 1,380 Climbing FlightAware ADS-B
06:12AM 51.4793 -0.6895 274° West 232 267 4,600 1,140 Climbing FlightAware ADS-B
06:12AM 51.4808 -0.7123 276° West 247 284 4,800 720 Climbing FlightAware ADS-B
06:12AM 51.4820 -0.7336 275° West 259 298 4,900 1,200 Climbing FlightAware ADS-B
06:12AM 51.4831 -0.7602 274° West 266 306 5,300 2,040 Climbing FlightAware ADS-B
06:12AM 51.4841 -0.7918 273° West 269 310 5,900 2,220 Climbing FlightAware ADS-B
06:13AM 51.4850 -0.8231 273° West 272 313 6,500 2,160 Climbing FlightAware ADS-B
06:13AM 51.4859 -0.8529 273° West 273 314 7,000 2,280 Climbing FlightAware ADS-B
06:13AM 51.4861 -0.8654 271° West 273 314 7,300 2,400 Climbing FlightAware ADS-B
06:13AM 51.4860 -0.8719 269° West 273 314 7,400 2,220 Climbing FlightAware ADS-B
06:13AM 51.4855 -0.8819 265° West 272 313 7,600 2,280 Climbing FlightAware ADS-B
06:13AM 51.4843 -0.8970 263° West 271 312 7,900 2,400 Climbing FlightAware ADS-B
06:14AM 51.4806 -0.9255 258° West 269 310 8,500 2,460 Climbing FlightAware ADS-B
06:14AM 51.4763 -0.9551 257° West 269 310 9,100 2,220 Climbing FlightAware ADS-B
06:14AM 51.4743 -0.9724 259° West 271 312 9,400 2,220 Climbing FlightAware ADS-B
06:14AM 51.4740 -0.9858 268° West 275 316 9,700 2,160 Climbing FlightAware ADS-B
06:14AM 51.4745 -0.9936 276° West 278 320 9,800 1,620 Climbing FlightAware ADS-B
06:14AM 51.4767 -1.0084 283° West 281 323 10,000 1,500 Climbing FlightAware ADS-B
06:15AM 51.4891 -1.0691 288° West 307 353 10,700 1,200 Climbing FlightAware ADS-B
06:15AM 51.5068 -1.1369 293° West 340 391 11,200 1,080 Climbing FlightAware ADS-B
06:16AM 51.5254 -1.2122 292° West 371 427 11,800 1,860 Climbing FlightAware ADS-B
06:16AM 51.5445 -1.2913 291° West 383 441 13,100 2,520 Climbing FlightAware ADS-B
06:17AM 51.5640 -1.3720 291° West 391 450 14,400 1,980 Climbing FlightAware ADS-B
06:17AM 51.5806 -1.4438 290° West 397 457 15,000 600 Climbing FlightAware ADS-B
06:18AM 51.5972 -1.5332 287° West 396 456 15,000 540 Level FlightAware ADS-B
06:18AM 51.6125 -1.6194 286° West 400 460 15,600 1,920 Climbing FlightAware ADS-B
06:19AM 51.6281 -1.7064 286° West 404 465 17,000 2,700 Climbing FlightAware ADS-B
06:19AM 51.6449 -1.7966 287° West 408 470 18,400 2,520 Climbing FlightAware ADS-B
06:20AM 51.6628 -1.8894 287° West 414 476 19,700 2,340 Climbing FlightAware ADS-B
06:20AM 51.6804 -1.9800 287° West 420 483 20,900 2,340 Climbing FlightAware ADS-B
06:21AM 51.6992 -2.0700 289° West 424 488 22,100 2,160 Climbing FlightAware ADS-B
06:21AM 51.7184 -2.1609 289° West 430 495 23,100 1,920 Climbing FlightAware ADS-B
06:22AM 51.7378 -2.2549 288° West 436 502 24,100 1,800 Climbing FlightAware ADS-B
06:22AM 51.7580 -2.3509 289° West 444 511 25,000 1,740 Climbing FlightAware ADS-B
06:23AM 51.7782 -2.4476 289° West 450 518 25,900 1,620 Climbing FlightAware ADS-B
06:23AM 51.7998 -2.5477 289° West 456 525 26,700 1,500 Climbing FlightAware ADS-B
06:24AM 51.8332 -2.6959 290° West 467 537 27,900 1,500 Climbing FlightAware ADS-B
06:25AM 51.8710 -2.8570 291° West 476 548 29,100 1,320 Climbing FlightAware
06:26AM 51.9030 -3.0000 290° West 479 551 30,000 600 Climbing FlightAware
06:26AM 51.9370 -3.1420 291° West 476 548 30,000  Level FlightAware
06:27AM 51.9650 -3.2640 290° West 472 543 30,000 840 Level FlightAware
06:28AM 51.9781 -3.4128 290° West 490 564 31,100 1,500 Climbing FlightAware UK
06:28AM 51.9780 -3.4090 290° West 451 519 31,100 1,380 Level FlightAware
06:28AM 51.9830 -3.5380 274° West 443 510 32,000 600 Climbing FlightAware
06:29AM 51.9840 -3.6870 271° West 442 509 32,000  Level FlightAware
06:30AM 51.9850 -3.8296 271° West 486 559 32,000  Level FlightAware UK
06:30AM 51.9850 -3.8410 271° West 443 510 32,000 -180 Level FlightAware
06:30AM 51.9893 -3.9694 271° West 484 557 31,900  Descending FlightAware UK
06:31AM 51.9900 -3.9740 271° West 456 525 32,000 120 Climbing FlightAware
06:31AM 52.0100 -4.1310 282° West 464 534 32,000 -120 Level FlightAware
06:32AM 52.0311 -4.2523 282° West 486 559 31,900  Descending FlightAware UK
06:32AM 52.0340 -4.2660 282° West 469 540 32,000 120 Climbing FlightAware
06:33AM 52.0580 -4.4070 286° West 470 541 32,000  Level FlightAware
06:33AM 52.0800 -4.5570 283° West 462 532 32,000  Level FlightAware
06:34AM 52.0950 -4.6940 283° West 462 532 32,000 -180 Level FlightAware
06:34AM 52.0954 -4.7011 283° West 484 557 31,900  Descending FlightAware UK
06:35AM 52.1066 -4.8034 283° West 484 557 32,000 120 Climbing FlightAware UK
06:35AM 52.1120 -4.8510 283° West 463 533 32,000  Level FlightAware
06:35AM 52.1260 -4.9890 279° West 464 534 32,000  Level FlightAware
06:36AM 52.1370 -5.0909 279° West 484 557 32,000  Level FlightAware UK
06:36AM 52.1380 -5.0980 279° West 466 536 32,000  Level FlightAware
06:37AM 52.1660 -5.2500 287° West 475 547 32,000  Level FlightAware
06:37AM 52.1900 -5.3980 285° West 468 539 32,000  Level FlightAware
06:38AM 52.2060 -5.5220 282° West 469 540 32,000  Level FlightAware
06:39AM 52.2254 -5.6677 282° West 484 557 32,000  Level FlightAware UK
06:39AM 52.2270 -5.6780 282° West 471 542 32,000  Level FlightAware
06:39AM 52.2445 -5.8129 282° West 484 557 32,000  Level FlightAware UK
06:40AM 52.2520 -5.8740 282° West 466 536 32,000  Level FlightAware
06:40AM 52.2700 -6.0270 281° West 464 534 32,000  Level FlightAware
06:41AM 52.2840 -6.1380 282° West 463 533 32,000  Level FlightAware
06:41AM 52.2940 -6.2260 281° West 463 533 32,000  Level FlightAware
06:42AM 52.3120 -6.3790 281° West 465 535 32,000 -180 Level FlightAware
06:42AM 52.3136 -6.3889 281° West 482 555 31,900  Descending FlightAware UK
06:43AM 52.3257 -6.4920 281° West 480 552 32,000 120 Climbing FlightAware UK
06:43AM 52.3290 -6.5200 281° West 467 537 32,000  Level FlightAware
06:44AM 52.3450 -6.6590 281° West 468 539 32,000  Level FlightAware
06:44AM 52.3610 -6.7950 281° West 468 539 32,000 -120 Level FlightAware
06:45AM 52.3735 -6.9082 281° West 482 555 31,900  Descending FlightAware UK
06:45AM 52.3770 -6.9350 281° West 468 539 32,000 120 Climbing FlightAware
06:45AM 52.3910 -7.0620 280° West 467 537 32,000  Level FlightAware
06:46AM 52.4070 -7.2040 281° West 467 537 32,000 -120 Level FlightAware
06:47AM 52.4223 -7.3454 281° West 482 555 31,900  Descending FlightAware UK
06:47AM 52.4210 -7.3340 281° West 468 539 32,000 180 Climbing FlightAware
06:47AM 52.4335 -7.4499 281° West 482 555 32,000 -120 Level FlightAware UK
06:48AM 52.4449 -7.5544 280° West 482 555 31,900  Descending FlightAware UK
06:48AM 52.4460 -7.5680 280° West 468 539 32,000 60 Climbing FlightAware
06:49AM 52.4660 -7.7510 280° West 466 536 32,000  Level FlightAware
06:49AM 52.4782 -7.8678 280° West 480 552 32,000  Level FlightAware UK
06:49AM 52.4800 -7.8920 280° West 466 536 32,000  Level FlightAware
06:50AM 52.4910 -7.9900 280° West 466 536 32,000  Level FlightAware
06:51AM 52.5080 -8.1570 280° West 466 536 32,000  Level FlightAware
06:51AM 52.5208 -8.2851 280° West 480 552 32,000  Level FlightAware UK
06:51AM 52.5220 -8.3000 280° West 466 536 32,000 -180 Level FlightAware
06:52AM 52.5334 -8.4101 280° West 480 552 31,900  Descending FlightAware UK
06:52AM 52.5340 -8.4200 280° West 466 536 32,000 120 Climbing FlightAware
06:53AM 52.5480 -8.5610 279° West 466 536 32,000  Level FlightAware
06:53AM 52.5620 -8.7000 279° West 467 537 32,000  Level FlightAware
06:53AM 52.5643 -8.7252 279° West 480 552 32,000  Level FlightAware UK
06:54AM 52.5744 -8.8306 279° West 480 552 32,000  Level FlightAware UK
06:54AM 52.5770 -8.8630 279° West 468 539 32,000  Level FlightAware
06:55AM 52.5910 -9.0090 279° West 468 539 32,000  Level FlightAware
06:56AM 52.6060 -9.1670 279° West 470 541 32,000  Level FlightAware
06:56AM 52.6190 -9.3100 279° West 471 542 32,000  Level FlightAware
06:57AM 52.6310 -9.4350 279° West 470 541 32,000  Level FlightAware
06:58AM 52.6450 -9.5940 278° West 468 539 32,000  Level FlightAware
06:58AM 52.6590 -9.7490 279° West 467 537 32,000  Level FlightAware
06:59AM 52.6710 -9.8900 278° West 466 536 32,000  Level FlightAware
07:00AM 52.6830 -10.0320 278° West 465 535 32,000  Level FlightAware
07:00AM 52.6970 -10.1900 278° West 465 535 32,000  Level FlightAware
07:01AM 52.7070 -10.3130 278° West 466 536 32,000  Level FlightAware
07:02AM 52.7230 -10.5060 278° West 464 534 32,000  Level FlightAware
07:03AM 52.7340 -10.6450 278° West 464 534 32,000  Level FlightAware
07:03AM 52.7440 -10.7700 278° West 465 535 32,000  Level FlightAware
07:04AM 52.7560 -10.9330 277° West 466 536 32,000  Level FlightAware
07:05AM 52.7670 -11.0760 277° West 467 537 32,000  Level FlightAware
07:05AM 52.7790 -11.2270 278° West 467 537 32,000  Level FlightAware
07:06AM 52.7880 -11.3560 277° West 466 536 32,000  Level FlightAware
07:07AM 52.8050 -11.5830 277° West 465 535 32,000  Level FlightAware
07:08AM 52.8150 -11.7240 277° West 466 536 32,000  Level FlightAware
07:08AM 52.8220 -11.8190 277° West 467 537 32,000  Level FlightAware
07:09AM 52.8330 -11.9890 276° West 465 535 32,000  Level FlightAware
07:10AM 52.8430 -12.1320 277° West 466 536 32,000  Level FlightAware
07:10AM 52.8520 -12.2610 277° West 467 537 32,000  Level FlightAware
07:11AM 52.8610 -12.4050 276° West 467 537 32,000  Level FlightAware
07:12AM 52.8710 -12.5660 276° West 467 537 32,000  Level FlightAware
07:12AM 52.8810 -12.7250 276° West 466 536 32,000  Level FlightAware
07:13AM 52.8890 -12.8540 276° West 466 536 32,000  Level FlightAware
07:14AM 52.8980 -13.0300 275° West 465 535 32,000  Level FlightAware
07:15AM 52.9050 -13.1750 275° West 465 535 32,000  Level FlightAware
07:15AM 52.9090 -13.2840 274° West 465 535 32,000  Level FlightAware
07:16AM 52.9140 -13.3930 274° West 465 535 32,000  Level FlightAware
07:17AM 52.9200 -13.5380 274° West 465 535 32,000  Level FlightAware
07:17AM 52.9240 -13.6470 274° West 465 535 32,000  Level FlightAware
07:18AM 52.9290 -13.7560 274° West 465 535 32,000  Level FlightAware
07:19AM 52.9350 -13.9010 274° West 465 535 32,000  Level FlightAware
07:19AM 52.9400 -14.0100 274° West 465 535 32,000  Level FlightAware
07:20AM 52.9450 -14.1490 273° West 465 535 32,000  Level FlightAware
07:21AM 52.9500 -14.2640 274° West 465 535 32,000  Level FlightAware
07:21AM 52.9560 -14.4100 274° West 465 535 32,000  Level FlightAware
07:22AM 52.9610 -14.5220 274° West 465 535 32,000  Level FlightAware
07:23AM 52.9670 -14.6670 274° West 465 535 32,000  Level FlightAware
07:25AM 52.9920 -15.0063 277° West  Level Estimated
07:26AM 53.0069 -15.2143 277° West  Level Estimated
07:27AM 53.0213 -15.4224 277° West  Level Estimated
07:28AM 53.0354 -15.6306 277° West  Level Estimated
07:29AM 53.0492 -15.8390 276° West  Level Estimated
07:30AM 53.0502 -16.0491 271° West  Level FlightAware Approximate
07:31AM 53.0508 -16.2593 270° West  Level FlightAware Approximate
07:32AM 53.0511 -16.4694 270° West  Level FlightAware Approximate
07:33AM 53.0510 -16.6795 270° West  Level FlightAware Approximate
07:34AM 53.0505 -16.8896 270° West  Level FlightAware Approximate
07:35AM 53.0496 -17.0997 270° West  Level FlightAware Approximate
07:36AM 53.0484 -17.3098 270° West  Level FlightAware Approximate
07:37AM 53.0468 -17.5199 269° West  Level FlightAware Approximate
07:38AM 53.0449 -17.7300 269° West  Level FlightAware Approximate
07:39AM 53.0425 -17.9400 269° West  Level FlightAware Approximate
07:40AM 53.0398 -18.1501 269° West  Level FlightAware Approximate
07:41AM 53.0368 -18.3601 269° West  Level FlightAware Approximate
07:42AM 53.0333 -18.5700 269° West  Level FlightAware Approximate
07:43AM 53.0295 -18.7800 268° West  Level FlightAware Approximate
07:44AM 53.0253 -18.9898 268° West  Level FlightAware Approximate
07:45AM 53.0208 -19.1997 268° West  Level FlightAware Approximate
07:45AM 53.0000 -20.0000 265° West 493 567 32,000  Level ETMS Enhanced Traffic Management System
07:46AM 53.0159 -19.4088 268° West  Level FlightAware Approximate
07:47AM 53.0106 -19.6179 268° West  Level FlightAware Approximate
07:48AM 53.0050 -19.8269 268° West  Level FlightAware Approximate
07:49AM 52.9978 -20.0378 265° West  Level FlightAware Approximate
07:50AM 52.9856 -20.2460 265° West  Level FlightAware Approximate
07:51AM 52.9159 -21.3571 264° West 493 567 32,000  Level FlightAware Transoceanic
07:52AM 52.9003 -21.5828 263° West 493 567 32,000  Level FlightAware Transoceanic
07:53AM 52.8844 -21.8083 263° West 493 567 32,000  Level FlightAware Transoceanic
07:54AM 52.8680 -22.0336 263° West 493 567 32,000  Level FlightAware Transoceanic
07:55AM 52.8512 -22.2588 263° West 493 567 32,000  Level FlightAware Transoceanic
07:56AM 52.8340 -22.4838 263° West 493 567 32,000  Level FlightAware Transoceanic
07:57AM 52.8163 -22.7086 263° West 493 567 32,000  Level FlightAware Transoceanic
07:58AM 52.7982 -22.9332 262° West 493 567 32,000  Level FlightAware Transoceanic
07:59AM 52.7797 -23.1576 262° West 493 567 32,000  Level FlightAware Transoceanic
08:00AM 52.7608 -23.3818 262° West 493 567 32,000  Level FlightAware Transoceanic
08:01AM 52.7415 -23.6059 262° West 493 567 32,000  Level FlightAware Transoceanic
08:02AM 52.7217 -23.8297 262° West 493 567 32,000  Level FlightAware Transoceanic
08:03AM 52.7015 -24.0533 261° West 493 567 32,000  Level FlightAware Transoceanic
08:04AM 52.6809 -24.2768 261° West 493 567 32,000  Level FlightAware Transoceanic
08:05AM 52.6598 -24.5000 261° West 493 567 32,000  Level FlightAware Transoceanic
08:06AM 52.6384 -24.7229 261° West 493 567 32,000  Level FlightAware Transoceanic
08:07AM 52.6165 -24.9457 261° West 493 567 32,000  Level FlightAware Transoceanic
08:08AM 52.5942 -25.1682 261° West 493 567 32,000  Level FlightAware Transoceanic
08:09AM 52.5715 -25.3906 260° West 493 567 32,000  Level FlightAware Transoceanic
08:10AM 52.5484 -25.6126 260° West 493 567 32,000  Level FlightAware Transoceanic
08:11AM 52.5249 -25.8345 260° West 493 567 32,000  Level FlightAware Transoceanic
08:12AM 52.5009 -26.0561 260° West 493 567 32,000  Level FlightAware Transoceanic
08:13AM 52.4766 -26.2775 260° West 493 567 32,000  Level FlightAware Transoceanic
08:14AM 52.4518 -26.4986 259° West 493 567 32,000  Level FlightAware Transoceanic
08:15AM 52.4266 -26.7195 259° West 493 567 32,000  Level FlightAware Transoceanic
08:16AM 52.4010 -26.9401 259° West 493 567 32,000  Level FlightAware Transoceanic
08:17AM 52.3750 -27.1604 259° West 493 567 32,000  Level FlightAware Transoceanic
08:18AM 52.3486 -27.3805 259° West 493 567 32,000  Level FlightAware Transoceanic
08:19AM 52.3218 -27.6003 259° West 493 567 32,000  Level FlightAware Transoceanic
08:20AM 52.2945 -27.8199 258° West 493 567 32,000  Level FlightAware Transoceanic
08:21AM 52.2669 -28.0392 258° West 493 567 32,000  Level FlightAware Transoceanic
08:22AM 52.2388 -28.2582 258° West 493 567 32,000  Level FlightAware Transoceanic
08:23AM 52.2104 -28.4769 258° West 493 567 32,000  Level FlightAware Transoceanic
08:24AM 52.1815 -28.6954 258° West 493 567 32,000  Level FlightAware Transoceanic
08:25AM 52.1523 -28.9136 258° West 493 567 32,000  Level FlightAware Transoceanic
08:26AM 52.1226 -29.1314 257° West 493 567 32,000  Level FlightAware Transoceanic
08:27AM 52.0926 -29.3490 257° West 493 567 32,000  Level FlightAware Transoceanic
08:28AM 52.0621 -29.5663 257° West 493 567 32,000  Level FlightAware Transoceanic
08:29AM 52.0313 -29.7833 257° West 493 567 32,000  Level FlightAware Transoceanic
08:30AM 52.0025 -29.9825 257° West  Level FlightAware Approximate
08:31AM 51.9735 -30.1814 257° West  Level FlightAware Approximate
08:32AM 51.9750 -30.1635 256° West  Level FlightAware Approximate
08:33AM 51.9444 -30.3617 256° West  Level FlightAware Approximate
08:34AM 51.9133 -30.5601 256° West  Level FlightAware Approximate
08:35AM 51.8820 -30.7582 256° West  Level FlightAware Approximate
08:36AM 51.8503 -30.9561 256° West  Level FlightAware Approximate
08:37AM 51.8182 -31.1536 255° West  Level FlightAware Approximate
08:38AM 51.7859 -31.3509 255° West  Level FlightAware Approximate
08:39AM 51.7532 -31.5479 255° West  Level FlightAware Approximate
08:40AM 51.7202 -31.7446 255° West  Level FlightAware Approximate
08:41AM 51.6868 -31.9410 255° West  Level FlightAware Approximate
08:42AM 51.6531 -32.1372 255° West  Level FlightAware Approximate
08:43AM 51.6191 -32.3330 254° West  Level FlightAware Approximate
08:44AM 51.5848 -32.5286 254° West  Level FlightAware Approximate
08:45AM 51.5502 -32.7238 254° West  Level FlightAware Approximate
08:46AM 51.5152 -32.9188 254° West  Level FlightAware Approximate
08:47AM 51.4799 -33.1134 254° West  Level FlightAware Approximate
08:48AM 51.4443 -33.3078 254° West  Level FlightAware Approximate
08:49AM 51.4083 -33.5018 254° West  Level FlightAware Approximate
08:50AM 51.3721 -33.6955 253° West  Level FlightAware Approximate
08:51AM 51.3355 -33.8890 253° West  Level FlightAware Approximate
08:52AM 51.2986 -34.0821 253° West  Level FlightAware Approximate
08:53AM 51.2614 -34.2749 253° West  Level FlightAware Approximate
08:54AM 51.2238 -34.4674 253° West  Level FlightAware Approximate
08:55AM 51.1860 -34.6596 253° West  Level FlightAware Approximate
08:56AM 51.1478 -34.8514 252° West  Level FlightAware Approximate
08:57AM 51.1093 -35.0430 252° West  Level FlightAware Approximate
08:58AM 51.0706 -35.2342 252° West  Level FlightAware Approximate
08:59AM 51.0315 -35.4251 252° West  Level FlightAware Approximate
09:00AM 50.9921 -35.6157 252° West  Level FlightAware Approximate
09:01AM 50.9523 -35.8059 252° West  Level FlightAware Approximate
09:02AM 50.9123 -35.9959 252° West  Level FlightAware Approximate
09:03AM 50.8720 -36.1855 251° West  Level FlightAware Approximate
09:04AM 50.8313 -36.3747 251° West  Level FlightAware Approximate
09:05AM 50.7904 -36.5637 251° West  Level FlightAware Approximate
09:06AM 50.7491 -36.7523 251° West  Level FlightAware Approximate
09:07AM 50.7076 -36.9406 251° West  Level FlightAware Approximate
09:08AM 50.6657 -37.1285 251° West  Level FlightAware Approximate
09:09AM 50.6236 -37.3161 251° West  Level FlightAware Approximate
09:10AM 50.5811 -37.5034 250° West  Level FlightAware Approximate
09:11AM 50.5393 -37.6908 251° West  Level FlightAware Approximate
09:12AM 50.4977 -37.8782 251° West  Level FlightAware Approximate
09:13AM 50.4558 -38.0653 251° West  Level FlightAware Approximate
09:14AM 50.4135 -38.2520 251° West  Level FlightAware Approximate
09:15AM 50.3710 -38.4385 250° West  Level FlightAware Approximate
09:16AM 50.3282 -38.6245 250° West  Level FlightAware Approximate
09:17AM 50.2851 -38.8103 250° West  Level FlightAware Approximate
09:18AM 50.2417 -38.9957 250° West  Level FlightAware Approximate
09:19AM 50.1980 -39.1807 250° West  Level FlightAware Approximate
09:20AM 50.1540 -39.3654 250° West  Level FlightAware Approximate
09:21AM 50.1097 -39.5498 250° West  Level FlightAware Approximate
09:22AM 50.0651 -39.7339 249° West  Level FlightAware Approximate
09:23AM 50.0203 -39.9175 249° West  Level FlightAware Approximate
09:24AM 49.9754 -40.1011 249° West  Level FlightAware Approximate
09:25AM 49.9305 -40.2844 249° West  Level FlightAware Approximate
09:26AM 49.8854 -40.4674 249° West  Level FlightAware Approximate
09:27AM 49.8400 -40.6501 249° West  Level FlightAware Approximate
09:28AM 49.7942 -40.8324 249° West  Level FlightAware Approximate
09:29AM 49.7482 -41.0144 249° West  Level FlightAware Approximate
09:30AM 49.7019 -41.1960 249° West  Level FlightAware Approximate
09:31AM 49.6553 -41.3773 248° West  Level FlightAware Approximate
09:32AM 49.6085 -41.5583 248° West  Level FlightAware Approximate
09:33AM 49.5613 -41.7389 248° West  Level FlightAware Approximate
09:34AM 49.5139 -41.9191 248° West  Level FlightAware Approximate
09:35AM 49.4662 -42.0990 248° West  Level FlightAware Approximate
09:36AM 49.4182 -42.2785 248° West  Level FlightAware Approximate
09:37AM 49.3699 -42.4577 248° West  Level FlightAware Approximate
09:38AM 49.3214 -42.6366 247° West  Level FlightAware Approximate
09:39AM 49.2726 -42.8150 247° West  Level FlightAware Approximate
09:40AM 49.2235 -42.9932 247° West  Level FlightAware Approximate
09:41AM 49.1741 -43.1709 247° West  Level FlightAware Approximate
09:42AM 49.1245 -43.3484 247° West  Level FlightAware Approximate
09:43AM 49.0746 -43.5254 247° West  Level FlightAware Approximate
09:44AM 49.0244 -43.7021 247° West  Level FlightAware Approximate
09:45AM 48.9740 -43.8785 247° West  Level FlightAware Approximate
09:46AM 48.9233 -44.0545 246° West  Level FlightAware Approximate
09:47AM 48.8723 -44.2301 246° West  Level FlightAware Approximate
09:48AM 48.8210 -44.4054 246° West  Level FlightAware Approximate
09:49AM 48.7695 -44.5803 246° West  Level FlightAware Approximate
09:50AM 48.7178 -44.7548 246° West  Level FlightAware Approximate
09:51AM 48.6657 -44.9291 246° West  Level FlightAware Approximate
09:52AM 48.6134 -45.1029 246° West  Level FlightAware Approximate
09:53AM 48.5609 -45.2764 245° Southwest  Level FlightAware Approximate
09:54AM 48.5080 -45.4495 245° Southwest  Level FlightAware Approximate
09:55AM 48.4550 -45.6222 245° Southwest  Level FlightAware Approximate
09:56AM 48.4016 -45.7946 245° Southwest  Level FlightAware Approximate
09:57AM 48.3480 -45.9666 245° Southwest  Level FlightAware Approximate
09:58AM 48.2942 -46.1383 245° Southwest  Level FlightAware Approximate
09:59AM 48.2401 -46.3096 245° Southwest  Level FlightAware Approximate
10:00AM 48.1861 -46.4808 245° Southwest  Level FlightAware Approximate
10:01AM 48.1321 -46.6519 245° Southwest  Level FlightAware Approximate
10:02AM 48.0779 -46.8226 245° Southwest  Level FlightAware Approximate
10:03AM 48.0234 -46.9929 244° Southwest  Level FlightAware Approximate
10:04AM 47.9687 -47.1628 244° Southwest  Level FlightAware Approximate
10:05AM 47.9137 -47.3325 244° Southwest  Level FlightAware Approximate
10:06AM 47.8585 -47.5017 244° Southwest  Level FlightAware Approximate
10:07AM 47.8031 -47.6706 244° Southwest  Level FlightAware Approximate
10:08AM 47.7474 -47.8391 244° Southwest  Level FlightAware Approximate
10:09AM 47.6914 -48.0073 244° Southwest  Level FlightAware Approximate
10:10AM 47.6352 -48.1751 244° Southwest  Level FlightAware Approximate
10:11AM 47.5788 -48.3425 243° Southwest  Level FlightAware Approximate
10:12AM 47.5221 -48.5096 243° Southwest  Level FlightAware Approximate
10:13AM 47.4651 -48.6763 243° Southwest  Level FlightAware Approximate
10:13AM 47.1880 -49.4770 243° Southwest 495 570 32,000  Level FlightAware
10:14AM 47.4080 -48.8427 243° Southwest  Level FlightAware Approximate
10:14AM 47.1250 -49.6540 242° Southwest 492 566 32,000  Level FlightAware
10:14AM 47.0810 -49.7750 242° Southwest 491 565 32,000  Level FlightAware
10:15AM 47.0470 -49.8740 243° Southwest 491 565 32,000  Level FlightAware
10:16AM 46.9940 -50.0250 243° Southwest 491 565 32,000  Level FlightAware
10:17AM 46.9630 -50.1160 244° Southwest 491 565 32,000  Level FlightAware
10:18AM 46.9200 -50.2390 243° Southwest 491 565 32,000  Level FlightAware
10:18AM 46.8870 -50.3320 243° Southwest 491 565 32,000  Level FlightAware
10:19AM 46.8450 -50.4530 243° Southwest 491 565 32,000  Level FlightAware
10:20AM 46.8030 -50.5740 243° Southwest 491 565 32,000  Level FlightAware
10:20AM 46.7700 -50.6690 243° Southwest 491 565 32,000  Level FlightAware
10:21AM 46.8770 -51.0030 295° West 497 572 32,000  Level FlightAware
10:21AM 46.8620 -51.1190 259° West 497 572 32,000  Level FlightAware
10:22AM 46.8430 -51.2640 259° West 493 567 32,000  Level FlightAware
10:23AM 46.8180 -51.4590 259° West 497 572 32,000  Level FlightAware
10:24AM 46.8000 -51.5900 259° West 497 572 32,000  Level FlightAware
10:24AM 46.7830 -51.7230 259° West 497 572 32,000  Level FlightAware
10:25AM 46.7630 -51.8670 259° West 497 572 32,000  Level FlightAware
10:26AM 46.7410 -52.0280 259° West 496 571 32,000  Level FlightAware
10:27AM 46.7220 -52.1650 259° West 495 570 32,000  Level FlightAware
10:27AM 46.7040 -52.3000 259° West 496 571 32,000  Level FlightAware
10:28AM 46.6880 -52.4140 258° West 499 574 32,000  Level FlightAware
10:29AM 46.6660 -52.5630 258° West 498 573 32,000  Level FlightAware
10:29AM 46.6420 -52.7000 256° West 498 573 32,000  Level FlightAware
10:30AM 46.6200 -52.8270 256° West 496 571 32,000  Level FlightAware
10:31AM 46.5970 -52.9650 256° West 496 571 32,000  Level FlightAware
10:32AM 46.5720 -53.1080 256° West 497 572 32,000  Level FlightAware
10:32AM 46.5490 -53.2410 256° West 496 571 32,000  Level FlightAware
10:33AM 46.5250 -53.3760 256° West 493 567 32,000  Level FlightAware
10:34AM 46.4940 -53.5510 256° West 488 562 32,000  Level FlightAware
10:34AM 46.4720 -53.6740 255° West 486 559 32,000  Level FlightAware
10:35AM 46.4450 -53.8260 256° West 486 559 32,000  Level FlightAware
10:36AM 46.4250 -53.9390 256° West 488 562 32,000  Level FlightAware
10:37AM 46.3990 -54.0800 255° West 489 563 32,000  Level FlightAware
10:37AM 46.3770 -54.2000 255° West 489 563 32,000  Level FlightAware
10:38AM 46.3590 -54.3000 255° West 489 563 32,000  Level FlightAware
10:39AM 46.3280 -54.4660 255° West 488 562 32,000  Level FlightAware
10:39AM 46.3070 -54.5700 254° West 488 562 32,000  Level FlightAware
10:40AM 46.2810 -54.7010 254° West 488 562 32,000  Level FlightAware
10:41AM 46.2560 -54.8290 254° West 488 562 32,000  Level FlightAware
10:42AM 46.2180 -55.0210 254° West 488 562 32,000  Level FlightAware
10:43AM 46.1920 -55.1490 254° West 488 562 32,000  Level FlightAware
10:44AM 46.1720 -55.2500 254° West 488 562 32,000  Level FlightAware
10:44AM 46.1260 -55.5170 256° West 490 564 32,000  Level FlightAware
10:45AM 46.1000 -55.6460 254° West 490 564 32,000  Level FlightAware
10:46AM 46.0640 -55.8280 254° West 489 563 32,000  Level FlightAware
10:47AM 46.0390 -55.9550 254° West 491 565 32,000  Level FlightAware
10:47AM 46.0160 -56.0610 253° West 491 565 32,000  Level FlightAware
10:48AM 45.9750 -56.2680 254° West 491 565 32,000  Level FlightAware
10:49AM 45.9450 -56.4140 254° West 491 565 32,000  Level FlightAware
10:50AM 45.9240 -56.5120 253° West 491 565 32,000  Level FlightAware
10:50AM 45.8970 -56.6390 253° West 491 565 32,000  Level FlightAware
10:51AM 45.8770 -56.7350 253° West 491 565 32,000  Level FlightAware
10:52AM 45.8490 -56.8650 253° West 491 565 32,000  Level FlightAware
10:52AM 45.8280 -56.9630 253° West 491 565 32,000  Level FlightAware
10:53AM 45.8010 -57.0900 253° West 491 565 32,000  Level FlightAware
10:54AM 45.7810 -57.1850 253° West 491 565 32,000  Level FlightAware
10:54AM 45.7600 -57.2830 253° West 491 565 32,000  Level FlightAware
10:55AM 45.6930 -57.5990 253° West 500 575 32,000  Level FlightAware
10:56AM 45.6630 -57.7350 253° West 499 574 32,000  Level FlightAware
10:57AM 45.6350 -57.8600 252° West 498 573 32,000 120 Level FlightAware
10:57AM 45.6050 -57.9980 253° West 498 573 32,200 1,080 Climbing FlightAware
10:58AM 45.5820 -58.1000 252° West 495 570 33,400 1,380 Climbing FlightAware
10:59AM 45.5520 -58.2350 252° West 493 567 34,000 360 Climbing FlightAware
10:59AM 45.5210 -58.3690 252° West 493 567 34,000  Level FlightAware
11:00AM 45.4940 -58.4880 252° West 494 568 34,000  Level FlightAware
11:01AM 45.4630 -58.6250 252° West 494 568 34,000  Level FlightAware
11:01AM 45.4330 -58.7550 252° West 493 567 34,000  Level FlightAware
11:02AM 45.4090 -58.8590 252° West 492 566 34,000  Level FlightAware
11:03AM 45.3770 -58.9960 252° West 490 564 34,000  Level FlightAware
11:03AM 45.3470 -59.1220 251° West 487 560 34,000  Level FlightAware
11:04AM 45.3180 -59.2450 252° West 486 559 34,000  Level FlightAware
11:05AM 45.2930 -59.3530 252° West 486 559 34,000  Level FlightAware
11:06AM 45.2610 -59.4870 251° West 485 558 34,000  Level FlightAware
11:06AM 45.2300 -59.6170 251° West 484 557 34,000  Level FlightAware
11:07AM 45.2010 -59.7390 251° West 486 559 34,000  Level FlightAware
11:08AM 45.1670 -59.8770 251° West 486 559 34,000  Level FlightAware
11:08AM 45.1410 -59.9830 251° West 487 560 34,000  Level FlightAware
11:09AM 45.1130 -60.0990 251° West 486 559 34,000  Level FlightAware
11:10AM 45.0800 -60.2310 251° West 483 556 34,000  Level FlightAware
11:10AM 45.0530 -60.3430 251° West 482 555 34,000  Level FlightAware
11:11AM 45.0210 -60.4690 250° West 482 555 34,000  Level FlightAware
11:12AM 44.9940 -60.5790 251° West 481 554 34,000  Level FlightAware
11:13AM 44.9340 -60.8130 250° West 482 555 34,000  Level FlightAware
11:14AM 44.9100 -60.9060 250° West 482 555 34,000  Level FlightAware
11:14AM 44.8800 -61.0220 250° West 482 555 34,000  Level FlightAware
11:15AM 44.8560 -61.1150 250° West 482 555 34,000  Level FlightAware
11:16AM 44.8320 -61.2080 250° West 482 555 34,000  Level FlightAware
11:17AM 44.7930 -61.3590 250° West 482 555 34,000  Level FlightAware
11:17AM 44.7700 -61.4490 250° West 482 555 34,000  Level FlightAware
11:18AM 44.7390 -61.5690 250° West 482 555 34,000  Level FlightAware
11:19AM 44.7150 -61.6600 250° West 482 555 34,000  Level FlightAware
11:19AM 44.6840 -61.7800 250° West 482 555 34,000  Level FlightAware
11:20AM 44.6610 -61.8700 250° West 482 555 34,000  Level FlightAware
11:21AM 44.5740 -62.1970 250° West 34,000  Level FlightAware
11:22AM 44.5430 -62.3120 249° West 480 552 34,000  Level FlightAware
11:22AM 44.5100 -62.4310 249° West 480 552 34,000  Level FlightAware
11:23AM 44.4740 -62.5640 249° West 480 552 34,000  Level FlightAware
11:24AM 44.4380 -62.6950 249° West 479 551 34,000  Level FlightAware
11:24AM 44.4140 -62.7850 250° West 480 552 34,000  Level FlightAware
11:25AM 44.3790 -62.9120 249° West 479 551 34,000  Level FlightAware
11:26AM 44.3470 -63.0260 249° West 478 550 34,000  Level FlightAware
11:26AM 44.3150 -63.1410 249° West 478 550 34,000  Level FlightAware
11:27AM 44.2780 -63.2740 249° West 477 549 34,000  Level FlightAware
11:28AM 44.2420 -63.4020 249° West 476 548 34,000  Level FlightAware
11:28AM 44.2100 -63.5140 248° West 476 548 34,000  Level FlightAware
11:29AM 44.1820 -63.6140 249° West 477 549 34,000 960 Level FlightAware
11:30AM 44.1500 -63.7230 248° West 474 545 35,200 1,380 Climbing FlightAware
11:30AM 44.1120 -63.8570 248° West 465 535 36,000 480 Climbing FlightAware
11:31AM 44.0770 -63.9790 248° West 461 531 36,000  Level FlightAware
11:32AM 44.0500 -64.0700 248° West 460 529 36,000  Level FlightAware
11:32AM 44.0190 -64.1790 248° West 463 533 36,000  Level FlightAware
11:33AM 43.9800 -64.3110 248° West 463 533 36,000  Level FlightAware
11:34AM 43.9450 -64.4310 248° West 464 534 36,000  Level FlightAware
11:35AM 43.9130 -64.5390 248° West 465 535 36,000  Level FlightAware
11:35AM 43.8800 -64.6520 248° West 465 535 36,000  Level FlightAware
11:36AM 43.8440 -64.7720 247° West 464 534 36,000  Level FlightAware
11:37AM 43.8080 -64.8930 248° West 463 533 36,000  Level FlightAware
11:37AM 43.7780 -64.9920 247° West 463 533 36,000  Level FlightAware
11:38AM 43.7450 -65.1020 247° West 462 532 36,000  Level FlightAware
11:39AM 43.7120 -65.2110 247° West 461 531 36,000  Level FlightAware
11:39AM 43.6790 -65.3210 248° West 462 532 36,000  Level FlightAware
11:40AM 43.6490 -65.4170 247° West 461 531 36,000  Level FlightAware
11:41AM 43.6120 -65.5380 247° West 460 529 36,000  Level FlightAware
11:41AM 43.5820 -65.6340 247° West 461 531 36,000  Level FlightAware
11:42AM 43.5450 -65.7540 247° West 461 531 36,000  Level FlightAware
11:43AM 43.5080 -65.8750 247° West 462 532 36,000  Level FlightAware
11:44AM 43.4700 -65.9980 247° West 461 531 36,000  Level FlightAware
11:44AM 43.4360 -66.1040 246° West 461 531 36,000  Level FlightAware
11:45AM 43.4020 -66.2140 247° West 460 529 36,000  Level FlightAware
11:45AM 43.3720 -66.3080 246° West 460 529 36,000  Level FlightAware
11:46AM 43.3340 -66.4260 246° West 461 531 36,000  Level FlightAware
11:47AM 43.3060 -66.5140 246° West 459 528 36,000  Level FlightAware
11:48AM 43.2690 -66.6330 247° West 459 528 36,000  Level FlightAware
11:48AM 43.2440 -66.7150 247° West 459 528 36,000  Level FlightAware
11:49AM 43.2060 -66.8300 246° West 458 527 36,000  Level FlightAware
11:50AM 43.1710 -66.9410 247° West 458 527 36,000  Level FlightAware
11:51AM 43.0950 -67.1810 247° West 458 527 36,000  Level FlightAware
11:52AM 43.0560 -67.3080 247° West 458 527 36,000  Level FlightAware
11:52AM 43.0230 -67.4150 247° West 457 526 36,000  Level FlightAware
11:53AM 42.9900 -67.5240 248° West 457 526 36,000  Level FlightAware
11:54AM 42.9460 -67.6660 247° West 454 522 36,000  Level FlightAware
11:55AM 42.9130 -67.7730 247° West 453 521 36,000  Level FlightAware
11:55AM 42.8760 -67.8920 247° West 453 521 36,000  Level FlightAware
11:56AM 42.8500 -67.9750 247° West 453 521 36,000  Level FlightAware
11:57AM 42.8160 -68.0840 247° West 453 521 36,000  Level FlightAware
11:57AM 42.7910 -68.1650 247° West 453 521 36,000  Level FlightAware
11:58AM 42.7570 -68.2720 247° West 453 521 36,000  Level FlightAware
11:59AM 42.7320 -68.3520 247° West 453 521 36,000  Level FlightAware
11:59AM 42.7070 -68.4330 247° West 453 521 36,000  Level FlightAware
12:01PM 42.5900 -68.7880 246° West 451 519 36,000  Level FlightAware
12:02PM 42.5570 -68.8900 246° West 450 518 36,000  Level FlightAware
12:03PM 42.5150 -69.0210 247° West 450 518 36,000  Level FlightAware
12:03PM 42.4750 -69.1440 246° West 453 521 36,000  Level FlightAware
12:04PM 42.4440 -69.2360 245° Southwest 453 521 36,000  Level FlightAware
12:05PM 42.4060 -69.3520 246° West 456 525 36,000  Level FlightAware
12:05PM 42.3660 -69.4730 246° West 459 528 36,000  Level FlightAware
12:06PM 42.3410 -69.5500 246° West 460 529 36,000  Level FlightAware
12:07PM 42.3000 -69.6700 245° Southwest 460 529 36,000  Level FlightAware
12:07PM 42.2650 -69.7760 246° West 464 534 36,000  Level FlightAware
12:08PM 42.2340 -69.8680 246° West 465 535 36,000  Level FlightAware
12:09PM 42.1940 -69.9860 245° Southwest 463 533 36,000  Level FlightAware
12:09PM 42.1580 -70.0920 245° Southwest 460 529 36,000  Level FlightAware
12:10PM 42.1240 -70.1920 245° Southwest 459 528 36,000  Level FlightAware
12:11PM 42.0840 -70.3100 245° Southwest 459 528 36,000  Level FlightAware
12:12PM 42.0360 -70.4510 245° Southwest 455 524 36,000  Level FlightAware
12:12PM 42.0070 -70.5440 247° West 457 526 36,000  Level FlightAware
12:13PM 41.9620 -70.6880 247° West 455 524 36,000  Level FlightAware
12:14PM 41.9290 -70.7930 247° West 455 524 36,000 -300 Level FlightAware
12:15PM 41.8820 -70.9380 247° West 456 525 35,600 -840 Descending FlightAware
12:16PM 41.8450 -71.0560 247° West 460 529 34,600 -1,320 Descending FlightAware
12:16PM 41.8110 -71.1610 247° West 460 529 33,800 -1,020 Descending FlightAware
12:17PM 41.7740 -71.2610 244° Southwest 444 511 33,300 -960 Descending FlightAware
12:18PM 41.7200 -71.3540 232° Southwest 426 490 32,500 -1,080 Descending FlightAware
12:19PM 41.6430 -71.4550 224° Southwest 410 472 31,500 -1,320 Descending FlightAware
12:19PM 41.5890 -71.5250 224° Southwest 408 470 30,500 -1,740 Descending FlightAware
12:20PM 41.5290 -71.6020 224° Southwest 393 452 29,000 -1,560 Descending FlightAware
12:21PM 41.4640 -71.6850 224° Southwest 383 441 27,100 -1,860 Descending FlightAware
12:22PM 41.3790 -71.7970 225° Southwest 374 430 25,300 -1,680 Descending FlightAware
12:23PM 41.3310 -71.8590 224° Southwest 374 430 25,000 -240 Descending FlightAware
12:23PM 41.2920 -71.9080 223° Southwest 374 430 25,000  Level FlightAware
12:24PM 41.2420 -71.9730 224° Southwest 374 430 25,000  Level FlightAware
12:25PM 41.2060 -72.0190 224° Southwest 374 430 25,000  Level FlightAware
12:25PM 41.1550 -72.0840 224° Southwest 374 430 25,000 -2,520 Level FlightAware
12:30PM 40.9570 -72.6920 247° West 342 394 11,900 -2,640 Descending FlightAware
12:31PM 40.9390 -72.7630 251° West 310 357 11,900  Level FlightAware
12:31PM 40.9130 -72.8150 237° Southwest 303 349 11,900  Level FlightAware
12:32PM 40.8660 -72.8610 217° Southwest 310 357 11,900 -720 Level FlightAware
12:33PM 40.8150 -72.9080 215° Southwest 303 349 10,900 -1,440 Descending FlightAware
12:33PM 40.7740 -72.9590 223° Southwest 292 336 9,900 -1,680 Descending FlightAware
12:34PM 40.7590 -73.0000 244° Southwest 285 328 9,000 -1,920 Descending FlightAware
12:34PM 40.7490 -73.0270 244° Southwest 283 326 8,500 -2,040 Descending FlightAware
12:34PM 40.7300 -73.0790 244° Southwest 279 321 7,300 -1,980 Descending FlightAware
12:35PM 40.7210 -73.1040 245° Southwest 280 322 6,900 -1,320 Descending FlightAware
12:35PM 40.7060 -73.1440 244° Southwest 278 320 6,400 -1,200 Descending FlightAware
12:36PM 40.6890 -73.1890 244° Southwest 278 320 5,800 -1,200 Descending FlightAware
12:36PM 40.6760 -73.2100 231° Southwest 278 320 5,500 -1,260 Descending FlightAware
12:36PM 40.6590 -73.2320 224° Southwest 278 320 5,100 -1,320 Descending FlightAware
12:37PM 40.6340 -73.2640 224° Southwest 276 318 4,500 -1,080 Descending FlightAware
12:37PM 40.6070 -73.2970 223° Southwest 273 314 4,100 -660 Descending FlightAware
12:38PM 40.5810 -73.3290 223° Southwest 274 315 3,900 -240 Descending FlightAware
12:38PM 40.5550 -73.3560 218° Southwest 261 300 3,900  Level FlightAware
12:39PM 40.5260 -73.3730 204° Southwest 233 268 3,900 -240 Level FlightAware
12:39PM 40.4990 -73.3870 202° Southwest 211 243 3,700 -480 Descending FlightAware
12:39PM 40.4820 -73.4040 217° Southwest 199 229 3,500 -600 Descending FlightAware
12:40PM 40.4870 -73.4300 284° West 181 208 3,200 -660 Descending FlightAware
12:40PM 40.5050 -73.4550 313° West 177 204 2,900 -300 Descending FlightAware
12:41PM 40.5160 -73.4800 300° West 170 196 2,900  Level FlightAware
12:41PM 40.5230 -73.4950 302° West 170 196 2,900  Level FlightAware
12:42PM 40.5400 -73.5320 301° West 171 197 2,900  Level FlightAware
12:42PM 40.5470 -73.5460 303° West 171 197 2,900  Level FlightAware
12:42PM 40.5540 -73.5630 298° West 169 194 2,900 -120 Level FlightAware
12:43PM 40.5680 -73.5930 302° West 172 198 2,800 -540 Descending FlightAware
12:43PM 40.5800 -73.6180 302° West 170 196 2,400 -900 Descending FlightAware
12:44PM 40.5910 -73.6430 300° West 174 200 2,000 -1,020 Descending FlightAware
12:44PM 40.5970 -73.6560 301° West 172 198 1,700 -960 Descending FlightAware
12:45PM 40.6080 -73.6810 300° West 154 177 1,300 -900 Descending FlightAware
12:45PM 40.6180 -73.7030 301° West 151 174 900 -780 Descending FlightAware
12:46PM 40.6280 -73.7240 302° West 148 170 600 -720 Descending FlightAware
12:46PM 40.6370 -73.7440 301° West 153 176 300 -780 Descending FlightAware
12:46PM 40.6440 -73.7590 302° West 152 175 -1,020 Descending FlightAware
12:47PM 40.6510 -73.7760 298° West 110 127  Level FlightAware
12:47PM 40.6560 -73.7870 301° West 55 63  Level FlightAware
12:48PM 40.6540 -73.7840 131° Southeast 21 24  Level FlightAware
12:48PM 40.6530 -73.7850 217° Southwest 14 16  Level FlightAware